createdAt,value
2023-04-30T00:01:30.878Z,11.10
2023-04-30T00:03:58.201Z,11.10
2023-04-30T00:06:28.424Z,11.10
2023-04-30T00:08:56.196Z,11.00
2023-04-30T00:11:23.748Z,11.00
2023-04-30T00:13:52.386Z,10.90
2023-04-30T00:16:19.617Z,10.80
2023-04-30T00:18:46.912Z,10.80
2023-04-30T00:21:14.252Z,10.70
2023-04-30T00:23:41.479Z,10.70
2023-04-30T00:26:08.776Z,10.70
2023-04-30T00:28:37.231Z,10.60
2023-04-30T00:31:07.138Z,10.60
2023-04-30T00:33:34.398Z,10.60
2023-04-30T00:36:01.777Z,10.50
2023-04-30T00:38:29.000Z,10.40
2023-04-30T00:40:56.549Z,10.40
2023-04-30T00:43:24.605Z,10.40
2023-04-30T00:45:52.070Z,10.30
2023-04-30T00:48:19.664Z,10.30
2023-04-30T00:50:47.097Z,10.30
2023-04-30T00:53:14.738Z,10.30
2023-04-30T00:55:44.020Z,10.20
2023-04-30T00:58:11.487Z,10.20
2023-04-30T01:00:39.382Z,10.10
2023-04-30T01:03:07.482Z,10.00
2023-04-30T01:05:34.882Z,10.00
2023-04-30T01:08:02.766Z,9.90
2023-04-30T01:10:36.673Z,10.00
2023-04-30T01:13:13.009Z,9.70
2023-04-30T01:15:57.304Z,9.60
2023-04-30T01:18:42.430Z,9.70
2023-04-30T01:21:10.439Z,9.80
2023-04-30T01:23:58.848Z,9.80
2023-04-30T01:27:04.438Z,9.90
2023-04-30T01:29:34.735Z,9.90
2023-04-30T01:32:04.087Z,9.90
2023-04-30T01:34:31.517Z,9.80
2023-04-30T01:37:07.605Z,9.90
2023-04-30T01:39:51.093Z,9.80
2023-04-30T01:42:22.616Z,9.80
2023-04-30T01:45:33.138Z,9.80
2023-04-30T01:48:42.632Z,9.70
2023-04-30T01:51:21.174Z,9.60
2023-04-30T01:53:49.470Z,9.80
2023-04-30T01:56:28.566Z,9.70
2023-04-30T01:58:57.065Z,9.60
2023-04-30T02:01:27.923Z,9.60
2023-04-30T02:03:55.389Z,9.50
2023-04-30T02:06:28.436Z,9.40
2023-04-30T02:09:02.702Z,9.30
2023-04-30T02:11:30.482Z,9.20
2023-04-30T02:13:57.569Z,9.30
2023-04-30T02:16:25.105Z,9.40
2023-04-30T02:18:52.954Z,9.30
2023-04-30T02:21:20.180Z,9.30
2023-04-30T02:23:48.412Z,9.20
2023-04-30T02:26:16.044Z,9.10
2023-04-30T02:28:43.241Z,9.20
2023-04-30T02:31:12.559Z,9.10
2023-04-30T02:33:39.818Z,9.20
2023-04-30T02:36:07.210Z,9.10
2023-04-30T02:38:34.590Z,9.10
2023-04-30T02:41:02.623Z,9.10
2023-04-30T02:43:29.858Z,9.10
2023-04-30T02:45:57.241Z,9.10
2023-04-30T02:48:25.206Z,9.00
2023-04-30T02:50:52.777Z,9.10
2023-04-30T02:53:20.018Z,9.10
2023-04-30T02:55:47.719Z,9.10
2023-04-30T02:58:15.058Z,8.90
2023-04-30T03:00:42.345Z,8.80
2023-04-30T03:03:10.000Z,8.80
2023-04-30T03:05:37.440Z,8.70
2023-04-30T03:08:04.644Z,8.80
2023-04-30T03:10:31.852Z,8.90
2023-04-30T03:12:59.050Z,8.90
2023-04-30T03:15:26.385Z,9.00
2023-04-30T03:17:53.517Z,9.00
2023-04-30T03:20:20.935Z,9.00
2023-04-30T03:22:48.170Z,9.00
2023-04-30T03:25:15.608Z,8.90
2023-04-30T03:27:42.816Z,8.90
2023-04-30T03:30:10.217Z,8.70
2023-04-30T03:32:37.440Z,8.80
2023-04-30T03:35:05.691Z,8.90
2023-04-30T03:37:33.032Z,8.90
2023-04-30T03:40:00.380Z,8.80
2023-04-30T03:42:27.693Z,8.80
2023-04-30T03:44:54.942Z,8.90
2023-04-30T03:47:22.195Z,8.90
2023-04-30T03:49:55.760Z,9.00
2023-04-30T03:52:24.538Z,9.00
2023-04-30T03:54:51.876Z,9.00
2023-04-30T03:57:20.410Z,8.80
2023-04-30T03:59:47.960Z,8.80
2023-04-30T04:02:16.238Z,8.70
2023-04-30T04:04:44.191Z,8.80
2023-04-30T04:07:11.680Z,8.80
2023-04-30T04:09:38.804Z,8.80
2023-04-30T04:12:06.931Z,8.90
2023-04-30T04:14:34.571Z,9.10
2023-04-30T04:17:05.926Z,9.10
2023-04-30T04:19:34.011Z,9.10
2023-04-30T04:22:01.508Z,9.10
2023-04-30T04:24:28.771Z,9.20
2023-04-30T04:26:56.236Z,9.20
2023-04-30T04:29:23.570Z,9.30
2023-04-30T04:31:51.382Z,9.40
2023-04-30T04:34:20.282Z,9.40
2023-04-30T04:36:47.924Z,9.40
2023-04-30T04:39:15.128Z,9.30
2023-04-30T04:41:42.883Z,9.50
2023-04-30T04:44:10.113Z,9.50
2023-04-30T04:46:42.567Z,9.60
2023-04-30T04:49:10.066Z,9.70
2023-04-30T04:51:37.181Z,9.70
2023-04-30T04:54:05.018Z,9.80
2023-04-30T04:56:32.348Z,9.80
2023-04-30T04:58:59.961Z,9.90
2023-04-30T05:01:27.522Z,9.90
2023-04-30T05:03:55.239Z,10.00
2023-04-30T05:06:22.969Z,10.00
2023-04-30T05:08:51.080Z,10.00
2023-04-30T05:11:18.272Z,10.10
2023-04-30T05:13:45.556Z,10.10
2023-04-30T05:16:12.796Z,10.20
2023-04-30T05:18:40.038Z,10.20
2023-04-30T05:21:07.309Z,10.30
2023-04-30T05:23:34.461Z,10.40
2023-04-30T05:26:02.431Z,10.50
2023-04-30T05:28:29.647Z,10.50
2023-04-30T05:30:56.777Z,10.60
2023-04-30T05:33:24.060Z,10.60
2023-04-30T05:35:51.397Z,10.70
2023-04-30T05:38:19.124Z,10.80
2023-04-30T05:40:46.578Z,10.80
2023-04-30T05:43:13.923Z,11.00
2023-04-30T05:45:41.275Z,11.10
2023-04-30T05:48:08.595Z,11.30
2023-04-30T05:50:35.792Z,11.30
2023-04-30T05:53:03.033Z,11.50
2023-04-30T05:55:31.164Z,11.50
2023-04-30T05:57:58.582Z,11.70
2023-04-30T06:00:25.863Z,11.80
2023-04-30T06:02:53.868Z,11.90
2023-04-30T06:05:21.337Z,11.90
2023-04-30T06:07:48.577Z,12.00
2023-04-30T06:10:15.843Z,12.10
2023-04-30T06:12:43.231Z,12.30
2023-04-30T06:15:10.714Z,12.30
2023-04-30T06:17:38.032Z,12.40
2023-04-30T06:20:07.566Z,12.20
2023-04-30T06:22:34.826Z,12.10
2023-04-30T06:25:02.279Z,12.10
2023-04-30T06:27:29.825Z,12.20
2023-04-30T06:29:57.374Z,12.40
2023-04-30T06:32:24.617Z,12.90
2023-04-30T06:34:51.845Z,13.20
2023-04-30T06:37:19.113Z,13.00
2023-04-30T06:39:46.445Z,12.70
2023-04-30T06:42:13.741Z,12.60
2023-04-30T06:44:40.991Z,12.40
2023-04-30T06:47:09.091Z,12.50
2023-04-30T06:49:36.220Z,12.50
2023-04-30T06:52:03.426Z,12.50
2023-04-30T06:54:31.311Z,12.40
2023-04-30T06:56:58.465Z,12.50
2023-04-30T06:59:26.277Z,12.60
2023-04-30T07:01:53.789Z,12.60
2023-04-30T07:04:21.455Z,12.50
2023-04-30T07:06:48.567Z,12.50
2023-04-30T07:09:15.961Z,12.50
2023-04-30T07:11:43.190Z,12.60
2023-04-30T07:14:10.558Z,12.60
2023-04-30T07:16:37.761Z,12.70
2023-04-30T07:19:05.049Z,12.70
2023-04-30T07:21:32.991Z,12.60
2023-04-30T07:24:00.243Z,12.70
2023-04-30T07:26:27.487Z,12.80
2023-04-30T07:28:54.659Z,12.80
2023-04-30T07:31:21.861Z,13.00
2023-04-30T07:33:50.826Z,13.10
2023-04-30T07:36:18.085Z,13.20
2023-04-30T07:38:45.503Z,13.30
2023-04-30T07:41:13.372Z,13.40
2023-04-30T07:43:40.765Z,13.30
2023-04-30T07:46:08.148Z,13.40
2023-04-30T07:48:35.490Z,13.40
2023-04-30T07:51:05.103Z,13.30
2023-04-30T07:53:32.915Z,13.60
2023-04-30T07:56:00.069Z,13.60
2023-04-30T07:58:27.356Z,13.50
2023-04-30T08:00:54.621Z,13.60
2023-04-30T08:03:22.147Z,13.80
2023-04-30T08:05:49.751Z,13.90
2023-04-30T08:08:17.063Z,13.90
2023-04-30T08:10:44.328Z,13.90
2023-04-30T08:13:11.505Z,13.90
2023-04-30T08:15:40.468Z,14.10
2023-04-30T08:18:07.847Z,14.00
2023-04-30T08:20:37.219Z,13.80
2023-04-30T08:23:06.480Z,13.90
2023-04-30T08:25:34.550Z,14.30
2023-04-30T08:28:02.527Z,14.30
2023-04-30T08:30:29.701Z,14.30
2023-04-30T08:32:57.797Z,14.20
2023-04-30T08:35:25.602Z,14.30
2023-04-30T08:37:53.870Z,14.20
2023-04-30T08:40:23.532Z,14.40
2023-04-30T08:43:02.776Z,14.40
2023-04-30T08:45:30.163Z,14.30
2023-04-30T08:47:59.975Z,14.40
2023-04-30T08:50:28.537Z,14.80
2023-04-30T08:52:56.403Z,15.00
2023-04-30T08:55:26.126Z,15.00
2023-04-30T08:57:53.308Z,14.90
2023-04-30T09:00:21.347Z,15.00
2023-04-30T09:02:49.851Z,15.00
2023-04-30T09:05:17.475Z,15.10
2023-04-30T09:10:23.271Z,14.60
2023-04-30T09:13:01.960Z,14.80
2023-04-30T09:15:30.542Z,15.20
2023-04-30T09:18:08.249Z,15.20
2023-04-30T09:20:36.539Z,15.30
2023-04-30T09:23:11.367Z,15.10
2023-04-30T09:25:42.182Z,15.40
2023-04-30T09:28:13.831Z,15.80
2023-04-30T09:30:42.080Z,15.80
2023-04-30T09:33:11.973Z,16.10
2023-04-30T09:35:42.185Z,15.90
2023-04-30T09:38:34.262Z,15.40
2023-04-30T09:41:02.439Z,15.80
2023-04-30T09:43:30.877Z,16.10
2023-04-30T09:45:59.845Z,16.40
2023-04-30T09:48:28.455Z,16.50
2023-04-30T09:50:56.216Z,16.60
2023-04-30T09:53:24.389Z,16.50
2023-04-30T09:55:53.158Z,16.60
2023-04-30T09:58:20.725Z,16.40
2023-04-30T10:00:50.708Z,16.40
2023-04-30T10:03:20.688Z,16.40
2023-04-30T10:05:50.724Z,16.40
2023-04-30T10:08:30.962Z,16.50
2023-04-30T10:11:06.468Z,16.70
2023-04-30T10:14:03.907Z,16.90
2023-04-30T10:16:43.433Z,16.80
2023-04-30T10:19:17.169Z,17.10
2023-04-30T10:21:47.117Z,17.50
2023-04-30T10:24:18.575Z,17.00
2023-04-30T10:26:47.464Z,16.60
2023-04-30T10:29:16.217Z,16.70
2023-04-30T10:31:49.913Z,16.40
2023-04-30T10:34:46.183Z,16.40
2023-04-30T10:37:31.726Z,15.70
2023-04-30T10:39:58.998Z,15.50
2023-04-30T10:42:26.270Z,16.10
2023-04-30T10:44:54.040Z,16.80
2023-04-30T10:47:28.384Z,17.20
2023-04-30T10:50:08.966Z,18.00
2023-04-30T10:52:39.356Z,17.30
2023-04-30T10:55:11.619Z,17.20
2023-04-30T10:57:43.948Z,17.10
2023-04-30T11:00:12.072Z,17.00
2023-04-30T11:02:48.981Z,16.70
2023-04-30T11:05:18.855Z,16.30
2023-04-30T11:07:51.800Z,16.90
2023-04-30T11:10:24.354Z,18.00
2023-04-30T11:12:53.838Z,18.10
2023-04-30T11:15:25.123Z,17.50
2023-04-30T11:17:58.740Z,16.90
2023-04-30T11:20:26.925Z,17.00
2023-04-30T11:23:11.443Z,16.90
2023-04-30T11:25:44.664Z,16.90
2023-04-30T11:28:15.280Z,17.40
2023-04-30T11:30:51.847Z,18.20
2023-04-30T11:33:20.386Z,18.80
2023-04-30T11:35:52.281Z,17.10
2023-04-30T11:38:50.184Z,17.50
2023-04-30T11:41:17.388Z,17.80
2023-04-30T11:43:44.754Z,18.60
2023-04-30T11:46:14.063Z,19.10
2023-04-30T11:48:46.443Z,19.90
2023-04-30T11:51:25.305Z,20.60
2023-04-30T11:53:53.789Z,19.00
2023-04-30T11:56:25.874Z,18.00
2023-04-30T11:58:55.982Z,17.20
2023-04-30T12:01:27.802Z,16.90
2023-04-30T12:03:57.959Z,16.70
2023-04-30T12:06:28.304Z,17.00
2023-04-30T12:08:57.546Z,17.00
2023-04-30T12:11:30.599Z,17.30
2023-04-30T12:14:14.198Z,18.30
2023-04-30T12:16:50.563Z,21.30
2023-04-30T12:19:25.435Z,21.10
2023-04-30T12:21:55.456Z,20.60
2023-04-30T12:24:23.981Z,20.00
2023-04-30T12:26:54.963Z,18.70
2023-04-30T12:29:23.232Z,18.10
2023-04-30T12:31:52.293Z,17.70
2023-04-30T12:34:19.724Z,18.40
2023-04-30T12:36:47.027Z,21.10
2023-04-30T12:39:18.929Z,18.80
2023-04-30T12:41:47.967Z,18.20
2023-04-30T12:44:22.470Z,17.50
2023-04-30T12:46:53.591Z,16.70
2023-04-30T12:49:29.395Z,16.50
2023-04-30T12:52:07.682Z,16.40
2023-04-30T12:54:37.079Z,16.40
2023-04-30T12:57:07.698Z,16.50
2023-04-30T12:59:52.214Z,16.60
2023-04-30T13:02:24.070Z,16.70
2023-04-30T13:04:52.889Z,17.00
2023-04-30T13:07:20.744Z,17.30
2023-04-30T13:09:48.035Z,17.20
2023-04-30T13:12:15.535Z,18.60
2023-04-30T13:14:42.885Z,18.80
2023-04-30T13:17:12.626Z,23.30
2023-04-30T13:19:40.438Z,24.40
2023-04-30T13:22:07.782Z,26.60
2023-04-30T13:24:35.058Z,26.60
2023-04-30T13:27:02.980Z,26.40
2023-04-30T13:29:30.143Z,24.00
2023-04-30T13:31:57.861Z,23.10
2023-04-30T13:34:25.125Z,20.90
2023-04-30T13:36:53.663Z,21.40
2023-04-30T13:39:22.189Z,21.20
2023-04-30T13:41:49.459Z,20.10
2023-04-30T13:44:17.511Z,19.80
2023-04-30T13:46:45.705Z,20.10
2023-04-30T13:49:13.005Z,21.50
2023-04-30T13:51:40.512Z,21.30
2023-04-30T13:54:07.798Z,23.10
2023-04-30T13:56:35.637Z,24.60
2023-04-30T13:59:03.291Z,25.60
2023-04-30T14:01:33.007Z,26.00
2023-04-30T14:04:02.239Z,26.20
2023-04-30T14:06:29.894Z,26.20
2023-04-30T14:08:57.620Z,25.60
2023-04-30T14:11:24.916Z,26.90
2023-04-30T14:13:52.882Z,27.20
2023-04-30T14:16:21.087Z,24.40
2023-04-30T14:18:48.595Z,21.90
2023-04-30T14:21:15.798Z,25.20
2023-04-30T14:23:46.224Z,26.60
2023-04-30T14:26:14.672Z,26.70
2023-04-30T14:28:41.799Z,26.70
2023-04-30T14:31:10.574Z,26.70
2023-04-30T14:33:37.787Z,25.80
2023-04-30T14:36:06.056Z,24.70
2023-04-30T14:38:33.504Z,26.40
2023-04-30T14:41:00.843Z,25.20
2023-04-30T14:43:29.412Z,25.70
2023-04-30T14:45:57.093Z,26.30
2023-04-30T14:48:24.331Z,26.80
2023-04-30T14:50:52.440Z,27.30
2023-04-30T14:53:19.962Z,24.70
2023-04-30T14:55:47.388Z,24.70
2023-04-30T14:58:14.647Z,21.10
2023-04-30T15:00:42.111Z,20.20
2023-04-30T15:03:09.752Z,24.40
2023-04-30T15:05:37.284Z,25.60
2023-04-30T15:08:04.728Z,27.20
2023-04-30T15:10:32.026Z,27.70
2023-04-30T15:12:59.260Z,27.40
2023-04-30T15:15:28.827Z,25.10
2023-04-30T15:17:57.620Z,23.10
2023-04-30T15:20:25.274Z,20.60
2023-04-30T15:22:54.982Z,22.20
2023-04-30T15:25:26.933Z,23.30
2023-04-30T15:27:55.320Z,25.90
2023-04-30T15:30:22.699Z,25.00
2023-04-30T15:32:50.533Z,24.90
2023-04-30T15:35:18.010Z,22.50
2023-04-30T15:37:45.479Z,20.60
2023-04-30T15:40:15.863Z,19.20
2023-04-30T15:42:43.710Z,18.90
2023-04-30T15:45:12.093Z,19.00
2023-04-30T15:47:39.905Z,18.90
2023-04-30T15:50:08.778Z,18.80
2023-04-30T15:52:38.285Z,18.30
2023-04-30T15:55:08.697Z,18.50
2023-04-30T15:57:35.981Z,18.40
2023-04-30T16:00:05.099Z,18.40
2023-04-30T16:02:40.239Z,18.30
2023-04-30T16:05:08.557Z,18.10
2023-04-30T16:07:36.684Z,17.50
2023-04-30T16:10:04.559Z,17.60
2023-04-30T16:12:31.902Z,17.70
2023-04-30T16:14:59.194Z,17.60
2023-04-30T16:17:26.474Z,17.40
2023-04-30T16:19:53.969Z,17.50
2023-04-30T16:22:21.974Z,17.40
2023-04-30T16:24:49.336Z,17.30
2023-04-30T16:27:16.687Z,17.20
2023-04-30T16:29:44.103Z,17.00
2023-04-30T16:32:11.949Z,17.00
2023-04-30T16:34:39.686Z,16.80
2023-04-30T16:37:06.900Z,16.80
2023-04-30T16:39:34.165Z,16.90
2023-04-30T16:42:02.784Z,16.80
2023-04-30T16:44:29.984Z,16.80
2023-04-30T16:46:59.676Z,16.60
2023-04-30T16:49:26.966Z,16.70
2023-04-30T16:51:54.392Z,16.70
2023-04-30T16:54:21.636Z,16.60
2023-04-30T16:56:48.830Z,16.60
2023-04-30T16:59:16.048Z,16.50
2023-04-30T17:01:44.416Z,16.40
2023-04-30T17:04:12.728Z,16.10
2023-04-30T17:06:40.104Z,16.10
2023-04-30T17:09:07.649Z,16.20
2023-04-30T17:11:34.868Z,16.30
2023-04-30T17:14:02.226Z,16.20
2023-04-30T17:16:29.545Z,16.10
2023-04-30T17:18:57.190Z,15.90
2023-04-30T17:21:24.484Z,15.80
2023-04-30T17:23:51.704Z,15.70
2023-04-30T17:26:18.964Z,15.70
2023-04-30T17:28:47.936Z,15.70
2023-04-30T17:31:15.254Z,15.60
2023-04-30T17:33:44.007Z,15.40
2023-04-30T17:36:13.382Z,15.30
2023-04-30T17:38:40.630Z,15.30
2023-04-30T17:41:08.399Z,15.20
2023-04-30T17:43:35.593Z,15.10
2023-04-30T17:46:03.514Z,15.00
2023-04-30T17:48:31.574Z,14.80
2023-04-30T17:50:58.857Z,14.60
2023-04-30T17:53:26.082Z,14.50
2023-04-30T17:55:53.820Z,14.40
2023-04-30T17:58:21.170Z,14.30
2023-04-30T18:00:48.668Z,14.40
2023-04-30T18:03:16.029Z,14.30
2023-04-30T18:05:43.797Z,14.20
2023-04-30T18:08:12.052Z,14.00
2023-04-30T18:10:39.272Z,13.90
2023-04-30T18:13:07.113Z,13.80
2023-04-30T18:15:34.476Z,13.60
2023-04-30T18:18:01.739Z,13.50
2023-04-30T18:20:29.079Z,13.30
2023-04-30T18:22:56.825Z,13.20
2023-04-30T18:25:24.246Z,13.00
2023-04-30T18:27:51.481Z,12.90
2023-04-30T18:30:18.756Z,12.80
2023-04-30T18:32:46.290Z,12.50
2023-04-30T18:35:15.350Z,12.40
2023-04-30T18:37:43.026Z,12.20
2023-04-30T18:40:11.298Z,12.10
2023-04-30T18:42:38.887Z,12.10
2023-04-30T18:45:07.055Z,12.10
2023-04-30T18:47:34.221Z,12.00
2023-04-30T18:50:01.639Z,11.90
2023-04-30T18:52:28.943Z,11.90
2023-04-30T18:54:56.477Z,11.80
2023-04-30T18:57:23.847Z,11.60
2023-04-30T18:59:51.370Z,11.40
2023-04-30T19:02:18.731Z,11.20
2023-04-30T19:04:46.495Z,11.30
2023-04-30T19:07:14.402Z,11.30
2023-04-30T19:09:41.811Z,11.50
2023-04-30T19:12:10.505Z,11.30
2023-04-30T19:14:37.879Z,11.20
2023-04-30T19:17:05.792Z,11.10
2023-04-30T19:19:33.528Z,11.10
2023-04-30T19:22:01.537Z,11.00
2023-04-30T19:24:28.858Z,11.10
2023-04-30T19:26:56.891Z,11.20
2023-04-30T19:29:29.579Z,11.20
2023-04-30T19:31:58.583Z,11.20
2023-04-30T19:34:29.375Z,11.20
2023-04-30T19:36:56.747Z,11.10
2023-04-30T19:39:34.487Z,11.00
2023-04-30T19:42:02.551Z,10.80
2023-04-30T19:44:30.304Z,10.80
2023-04-30T19:46:58.339Z,10.60
2023-04-30T19:49:26.585Z,10.60
2023-04-30T19:51:55.143Z,10.50
2023-04-30T19:54:22.399Z,10.60
2023-04-30T19:56:53.004Z,10.60
2023-04-30T19:59:20.452Z,10.50
2023-04-30T20:01:48.701Z,10.50
2023-04-30T20:04:16.247Z,10.40
2023-04-30T20:06:44.858Z,10.40
2023-04-30T20:09:12.565Z,10.30
2023-04-30T20:11:39.799Z,10.20
2023-04-30T20:14:07.289Z,10.10
2023-04-30T20:16:34.457Z,10.10
2023-04-30T20:19:01.861Z,10.00
2023-04-30T20:21:29.768Z,10.10
2023-04-30T20:23:57.117Z,10.20
2023-04-30T20:26:26.210Z,10.50
2023-04-30T20:28:53.887Z,10.50
2023-04-30T20:31:21.599Z,10.60
2023-04-30T20:33:48.942Z,10.80
2023-04-30T20:36:16.919Z,10.80
2023-04-30T20:38:44.653Z,10.70
2023-04-30T20:41:12.641Z,10.60
2023-04-30T20:43:39.860Z,10.40
2023-04-30T20:46:07.234Z,10.20
2023-04-30T20:48:35.113Z,10.10
2023-04-30T20:51:02.313Z,9.80
2023-04-30T20:53:29.988Z,9.50
2023-04-30T20:56:00.340Z,9.50
2023-04-30T20:58:27.998Z,9.40
2023-04-30T21:00:55.252Z,9.50
2023-04-30T21:03:23.009Z,9.40
2023-04-30T21:05:50.405Z,9.40
2023-04-30T21:08:17.551Z,9.50
2023-04-30T21:10:44.682Z,9.80
2023-04-30T21:13:13.184Z,9.70
2023-04-30T21:15:40.540Z,9.80
2023-04-30T21:18:08.880Z,9.60
2023-04-30T21:20:36.552Z,9.80
2023-04-30T21:23:04.202Z,9.80
2023-04-30T21:25:31.412Z,9.60
2023-04-30T21:27:58.869Z,9.60
2023-04-30T21:30:26.801Z,9.60
2023-04-30T21:32:58.810Z,9.80
2023-04-30T21:35:29.960Z,9.90
2023-04-30T21:37:57.203Z,10.00
2023-04-30T21:40:24.427Z,10.10
2023-04-30T21:42:52.740Z,10.00
2023-04-30T21:45:20.011Z,10.20
2023-04-30T21:47:48.790Z,10.40
2023-04-30T21:50:16.559Z,10.30
2023-04-30T21:52:44.245Z,10.30
2023-04-30T21:55:12.541Z,10.40
2023-04-30T21:57:39.841Z,10.30
2023-04-30T22:00:08.844Z,10.30
2023-04-30T22:02:37.156Z,10.30
2023-04-30T22:05:04.682Z,10.20
2023-04-30T22:07:32.108Z,10.30
2023-04-30T22:09:59.239Z,10.20
2023-04-30T22:12:27.131Z,10.30
2023-04-30T22:14:57.090Z,10.20
2023-04-30T22:17:25.049Z,10.20
2023-04-30T22:19:52.202Z,10.00
2023-04-30T22:22:19.382Z,9.80
2023-04-30T22:24:46.680Z,9.70
2023-04-30T22:27:14.021Z,9.70
2023-04-30T22:29:42.732Z,9.60
2023-04-30T22:32:11.770Z,9.70
2023-04-30T22:34:41.105Z,9.80
2023-04-30T22:37:11.846Z,9.70
2023-04-30T22:39:39.773Z,9.70
2023-04-30T22:42:08.913Z,9.60
2023-04-30T22:44:36.677Z,9.80
2023-04-30T22:47:04.246Z,9.80
2023-04-30T22:49:32.447Z,9.80
2023-04-30T22:52:01.187Z,9.80
2023-04-30T22:54:28.790Z,9.80
2023-04-30T22:56:56.175Z,9.70
2023-04-30T22:59:23.448Z,9.60
2023-04-30T23:01:50.624Z,9.60
2023-04-30T23:04:17.964Z,9.50
2023-04-30T23:06:45.423Z,9.50
2023-04-30T23:09:12.952Z,9.50
2023-04-30T23:11:40.413Z,9.50
2023-04-30T23:14:08.370Z,9.40
2023-04-30T23:16:36.121Z,9.40
2023-04-30T23:19:03.856Z,9.30
2023-04-30T23:21:31.749Z,9.30
2023-04-30T23:23:59.236Z,9.20
2023-04-30T23:26:26.390Z,9.10
2023-04-30T23:28:55.421Z,8.90
2023-04-30T23:31:22.795Z,8.90
2023-04-30T23:33:50.074Z,8.80
2023-04-30T23:36:17.824Z,8.80
2023-04-30T23:38:46.960Z,8.90
2023-04-30T23:41:14.724Z,8.80
2023-04-30T23:43:42.019Z,8.70
2023-04-30T23:46:09.247Z,8.80
2023-04-30T23:48:36.606Z,8.70
2023-04-30T23:51:05.903Z,8.60
2023-04-30T23:53:33.122Z,8.30
2023-04-30T23:56:00.805Z,8.20
2023-04-30T23:58:31.869Z,8.00
